createdAt,value
2023-04-10T00:01:19.253Z,101562.16
2023-04-10T00:04:01.028Z,101562.97
2023-04-10T00:06:36.634Z,101555.63
2023-04-10T00:09:13.247Z,101564.06
2023-04-10T00:11:44.288Z,101552.41
2023-04-10T00:14:23.193Z,101562.06
2023-04-10T00:17:01.580Z,101554.81
2023-04-10T00:19:43.365Z,101557.97
2023-04-10T00:22:16.215Z,101555.97
2023-04-10T00:24:52.002Z,101546.63
2023-04-10T00:27:28.330Z,101545.16
2023-04-10T00:30:04.443Z,101551.13
2023-04-10T00:32:34.863Z,101550.31
2023-04-10T00:35:10.959Z,101548.78
2023-04-10T00:37:51.248Z,101548.31
2023-04-10T00:40:27.502Z,101554.34
2023-04-10T00:43:03.125Z,101538.06
2023-04-10T00:45:36.361Z,101541.44
2023-04-10T00:48:09.944Z,101545.81
2023-04-10T00:50:46.594Z,101550.63
2023-04-10T00:53:25.188Z,101549.44
2023-04-10T00:55:58.977Z,101545.41
2023-04-10T00:58:37.558Z,101549.34
2023-04-10T01:01:13.243Z,101539.34
2023-04-10T01:03:50.010Z,101546.16
2023-04-10T01:06:59.501Z,101543.78
2023-04-10T01:09:36.761Z,101536.53
2023-04-10T01:12:33.094Z,101534.06
2023-04-10T01:15:10.810Z,101535.34
2023-04-10T01:17:52.272Z,101541.97
2023-04-10T01:20:35.262Z,101531.53
2023-04-10T01:23:21.370Z,101530.34
2023-04-10T01:26:01.315Z,101529.31
2023-04-10T01:28:41.492Z,101526.47
2023-04-10T01:31:18.462Z,101531.78
2023-04-10T01:34:03.776Z,101536.50
2023-04-10T01:36:47.451Z,101534.03
2023-04-10T01:39:21.685Z,101540.50
2023-04-10T01:42:00.842Z,101539.75
2023-04-10T01:44:47.196Z,101529.69
2023-04-10T01:47:25.255Z,101528.66
2023-04-10T01:50:02.565Z,101530.72
2023-04-10T01:52:36.323Z,101510.50
2023-04-10T01:55:28.370Z,101520.66
2023-04-10T01:58:10.784Z,101525.56
2023-04-10T02:00:47.252Z,101523.00
2023-04-10T02:03:23.988Z,101526.69
2023-04-10T02:06:27.398Z,101536.69
2023-04-10T02:09:17.807Z,101534.00
2023-04-10T02:12:09.366Z,101544.84
2023-04-10T02:14:45.683Z,101545.38
2023-04-10T02:17:29.202Z,101539.38
2023-04-10T02:20:00.878Z,101544.19
2023-04-10T02:22:34.322Z,101546.56
2023-04-10T02:25:08.701Z,101548.03
2023-04-10T02:27:45.289Z,101545.13
2023-04-10T02:30:23.539Z,101548.13
2023-04-10T02:33:03.328Z,101547.22
2023-04-10T02:35:40.513Z,101543.66
2023-04-10T02:38:19.817Z,101536.38
2023-04-10T02:40:55.075Z,101545.28
2023-04-10T02:43:31.000Z,101542.09
2023-04-10T02:46:06.629Z,101537.72
2023-04-10T02:48:45.061Z,101543.75
2023-04-10T02:51:21.584Z,101544.19
2023-04-10T02:53:59.864Z,101544.03
2023-04-10T02:56:41.320Z,101544.56
2023-04-10T02:59:17.347Z,101541.19
2023-04-10T03:01:50.690Z,101548.84
2023-04-10T03:04:30.053Z,101543.47
2023-04-10T03:07:06.310Z,101542.31
2023-04-10T03:09:42.525Z,101541.78
2023-04-10T03:12:20.543Z,101546.22
2023-04-10T03:14:56.345Z,101547.78
2023-04-10T03:17:34.484Z,101551.25
2023-04-10T03:20:07.834Z,101554.34
2023-04-10T03:22:46.667Z,101553.88
2023-04-10T03:25:19.442Z,101558.63
2023-04-10T03:27:57.851Z,101553.72
2023-04-10T03:30:40.088Z,101556.78
2023-04-10T03:33:16.068Z,101554.69
2023-04-10T03:35:57.339Z,101560.69
2023-04-10T03:38:41.064Z,101556.59
2023-04-10T03:41:14.989Z,101566.22
2023-04-10T03:43:50.863Z,101566.94
2023-04-10T03:46:30.493Z,101561.69
2023-04-10T03:49:04.530Z,101578.94
2023-04-10T03:51:38.722Z,101565.66
2023-04-10T03:54:16.916Z,101566.47
2023-04-10T03:56:49.475Z,101565.66
2023-04-10T03:59:31.036Z,101570.03
2023-04-10T04:02:16.600Z,101574.50
2023-04-10T04:04:53.272Z,101566.41
2023-04-10T04:07:49.677Z,101574.50
2023-04-10T04:10:46.301Z,101575.22
2023-04-10T04:13:28.477Z,101578.03
2023-04-10T04:16:26.572Z,101582.47
2023-04-10T04:19:10.240Z,101582.47
2023-04-10T04:22:00.400Z,101588.13
2023-04-10T04:25:13.679Z,101582.03
2023-04-10T04:28:04.897Z,101596.94
2023-04-10T04:30:58.464Z,101596.56
2023-04-10T04:33:55.028Z,101603.00
2023-04-10T04:36:36.725Z,101598.56
2023-04-10T04:39:33.485Z,101594.22
2023-04-10T04:42:25.274Z,101605.50
2023-04-10T04:45:21.936Z,101595.75
2023-04-10T04:48:19.185Z,101600.19
2023-04-10T04:51:23.257Z,101602.94
2023-04-10T04:54:10.563Z,101602.94
2023-04-10T04:56:46.221Z,101602.94
2023-04-10T04:59:59.588Z,101614.19
2023-04-10T05:02:57.496Z,101608.56
2023-04-10T05:05:35.982Z,101614.19
2023-04-10T05:08:36.601Z,101621.50
2023-04-10T05:11:32.339Z,101621.09
2023-04-10T05:14:24.668Z,101628.38
2023-04-10T05:17:16.870Z,101633.66
2023-04-10T05:20:05.676Z,101632.47
2023-04-10T05:22:53.104Z,101628.22
2023-04-10T05:25:47.287Z,101635.03
2023-04-10T05:28:24.625Z,101630.94
2023-04-10T05:31:02.580Z,101632.94
2023-04-10T05:33:56.359Z,101637.84
2023-04-10T05:36:44.703Z,101636.84
2023-04-10T05:39:36.560Z,101633.22
2023-04-10T05:42:22.689Z,101639.66
2023-04-10T05:45:19.544Z,101644.16
2023-04-10T05:48:09.762Z,101644.97
2023-04-10T05:50:53.504Z,101650.22
2023-04-10T05:53:56.103Z,101657.16
2023-04-10T05:56:46.760Z,101657.97
2023-04-10T05:59:43.069Z,101652.91
2023-04-10T06:02:45.307Z,101665.81
2023-04-10T06:05:30.456Z,101662.97
2023-04-10T06:08:08.533Z,101671.53
2023-04-10T06:10:42.012Z,101668.63
2023-04-10T06:13:24.312Z,101674.34
2023-04-10T06:16:06.060Z,101678.91
2023-04-10T06:18:42.589Z,101680.28
2023-04-10T06:21:21.928Z,101684.44
2023-04-10T06:23:52.533Z,101674.38
2023-04-10T06:26:28.449Z,101677.75
2023-04-10T06:29:01.656Z,101683.63
2023-04-10T06:31:42.942Z,101680.91
2023-04-10T06:34:19.672Z,101698.38
2023-04-10T06:37:06.674Z,101687.66
2023-04-10T06:39:42.704Z,101679.28
2023-04-10T06:42:15.691Z,101684.53
2023-04-10T06:45:03.276Z,101680.97
2023-04-10T06:47:39.050Z,101680.00
2023-04-10T06:50:17.959Z,101678.63
2023-04-10T06:52:53.365Z,101681.00
2023-04-10T06:55:26.761Z,101677.81
2023-04-10T06:57:59.692Z,101682.34
2023-04-10T07:00:37.442Z,101682.09
2023-04-10T07:03:10.431Z,101677.00
2023-04-10T07:05:47.358Z,101674.19
2023-04-10T07:08:25.264Z,101678.63
2023-04-10T07:11:00.382Z,101666.97
2023-04-10T07:13:35.569Z,101680.09
2023-04-10T07:16:11.478Z,101666.38
2023-04-10T07:18:47.606Z,101662.78
2023-04-10T07:21:23.556Z,101665.25
2023-04-10T07:24:04.394Z,101658.88
2023-04-10T07:26:44.095Z,101668.22
2023-04-10T07:29:17.665Z,101667.88
2023-04-10T07:31:50.732Z,101659.94
2023-04-10T07:34:24.056Z,101665.22
2023-04-10T07:37:00.852Z,101660.84
2023-04-10T07:39:36.890Z,101660.38
2023-04-10T07:42:12.271Z,101660.47
2023-04-10T07:44:51.197Z,101659.38
2023-04-10T07:47:23.681Z,101663.38
2023-04-10T07:49:59.373Z,101665.44
2023-04-10T07:52:35.074Z,101671.97
2023-04-10T07:55:10.932Z,101665.91
2023-04-10T07:57:46.754Z,101676.81
2023-04-10T08:00:19.348Z,101671.91
2023-04-10T08:02:57.321Z,101675.66
2023-04-10T08:05:33.847Z,101675.28
2023-04-10T08:08:07.305Z,101674.91
2023-04-10T08:10:39.899Z,101671.31
2023-04-10T08:13:15.611Z,101676.97
2023-04-10T08:15:45.132Z,101677.06
2023-04-10T08:18:24.947Z,101681.44
2023-04-10T08:20:57.768Z,101672.31
2023-04-10T08:23:29.003Z,101683.22
2023-04-10T08:26:05.615Z,101675.50
2023-04-10T08:28:50.177Z,101675.13
2023-04-10T08:31:27.793Z,101671.84
2023-04-10T08:34:00.713Z,101671.94
2023-04-10T08:36:46.957Z,101671.84
2023-04-10T08:39:19.916Z,101677.16
2023-04-10T08:41:56.043Z,101674.75
2023-04-10T08:44:31.732Z,101674.00
2023-04-10T08:47:10.735Z,101674.47
2023-04-10T08:49:56.639Z,101672.47
2023-04-10T08:52:39.004Z,101676.09
2023-04-10T08:55:13.159Z,101664.81
2023-04-10T08:57:58.031Z,101673.13
2023-04-10T09:00:35.281Z,101662.28
2023-04-10T09:03:15.346Z,101664.72
2023-04-10T09:05:48.268Z,101669.19
2023-04-10T09:08:29.472Z,101662.91
2023-04-10T09:11:02.461Z,101667.41
2023-04-10T09:14:04.404Z,101662.50
2023-04-10T09:16:39.820Z,101663.25
2023-04-10T09:19:15.349Z,101666.59
2023-04-10T09:21:53.442Z,101665.84
2023-04-10T09:24:28.868Z,101669.56
2023-04-10T09:27:07.265Z,101669.13
2023-04-10T09:29:49.043Z,101671.50
2023-04-10T09:32:56.482Z,101664.66
2023-04-10T09:35:40.311Z,101672.84
2023-04-10T09:38:42.419Z,101679.34
2023-04-10T09:41:17.894Z,101666.50
2023-04-10T09:44:08.214Z,101675.78
2023-04-10T09:46:43.977Z,101673.03
2023-04-10T09:49:14.406Z,101675.97
2023-04-10T09:51:47.570Z,101663.06
2023-04-10T09:54:39.943Z,101664.22
2023-04-10T09:57:11.249Z,101659.47
2023-04-10T09:59:59.668Z,101662.31
2023-04-10T10:02:41.301Z,101663.19
2023-04-10T10:05:14.550Z,101655.59
2023-04-10T10:07:55.004Z,101649.50
2023-04-10T10:10:34.420Z,101647.13
2023-04-10T10:13:08.633Z,101637.00
2023-04-10T10:15:57.858Z,101633.84
2023-04-10T10:18:58.815Z,101626.59
2023-04-10T10:21:40.436Z,101626.59
2023-04-10T10:24:13.651Z,101625.38
2023-04-10T10:26:50.493Z,101621.81
2023-04-10T10:29:24.612Z,101624.63
2023-04-10T10:32:02.954Z,101627.91
2023-04-10T10:34:36.725Z,101619.38
2023-04-10T10:37:12.389Z,101615.34
2023-04-10T10:40:01.044Z,101612.97
2023-04-10T10:42:38.360Z,101620.69
2023-04-10T10:45:17.203Z,101615.03
2023-04-10T10:48:08.053Z,101613.78
2023-04-10T10:50:57.035Z,101610.19
2023-04-10T10:53:53.621Z,101611.41
2023-04-10T10:56:43.957Z,101609.75
2023-04-10T10:59:16.502Z,101597.69
2023-04-10T11:02:14.192Z,101596.06
2023-04-10T11:04:49.561Z,101595.19
2023-04-10T11:07:57.400Z,101599.72
2023-04-10T11:10:59.187Z,101593.75
2023-04-10T11:13:35.202Z,101577.22
2023-04-10T11:16:11.403Z,101580.88
2023-04-10T11:18:59.468Z,101580.44
2023-04-10T11:22:08.426Z,101577.97
2023-04-10T11:24:57.444Z,101571.63
2023-04-10T11:27:46.576Z,101568.47
2023-04-10T11:30:34.984Z,101569.28
2023-04-10T11:33:18.220Z,101561.91
2023-04-10T11:35:54.729Z,101563.91
2023-04-10T11:38:33.239Z,101554.59
2023-04-10T11:41:06.726Z,101553.44
2023-04-10T11:43:48.387Z,101546.69
2023-04-10T11:46:27.144Z,101541.06
2023-04-10T11:49:07.139Z,101542.28
2023-04-10T11:51:38.724Z,101541.88
2023-04-10T11:54:16.992Z,101534.63
2023-04-10T11:57:05.674Z,101529.41
2023-04-10T11:59:41.416Z,101531.41
2023-04-10T12:02:17.991Z,101532.28
2023-04-10T12:04:59.206Z,101533.16
2023-04-10T12:07:33.153Z,101529.97
2023-04-10T12:10:07.572Z,101534.41
2023-04-10T12:12:44.869Z,101527.13
2023-04-10T12:15:31.556Z,101530.00
2023-04-10T12:18:08.235Z,101525.47
2023-04-10T12:20:41.097Z,101525.47
2023-04-10T12:23:17.031Z,101517.28
2023-04-10T12:25:57.100Z,101523.00
2023-04-10T12:28:33.838Z,101514.88
2023-04-10T12:31:15.676Z,101514.13
2023-04-10T12:33:47.730Z,101513.81
2023-04-10T12:36:25.365Z,101512.09
2023-04-10T12:38:57.044Z,101502.44
2023-04-10T12:41:30.633Z,101508.03
2023-04-10T12:44:12.475Z,101502.00
2023-04-10T12:46:48.164Z,101503.25
2023-04-10T12:49:25.168Z,101501.69
2023-04-10T12:51:57.937Z,101502.50
2023-04-10T12:54:45.388Z,101492.31
2023-04-10T12:57:28.954Z,101495.53
2023-04-10T13:00:05.719Z,101490.69
2023-04-10T13:02:39.886Z,101493.16
2023-04-10T13:05:11.489Z,101483.81
2023-04-10T13:07:45.569Z,101479.38
2023-04-10T13:10:21.852Z,101487.50
2023-04-10T13:12:56.674Z,101490.19
2023-04-10T13:15:28.172Z,101481.22
2023-04-10T13:17:58.761Z,101482.84
2023-04-10T13:20:29.452Z,101482.75
2023-04-10T13:23:05.730Z,101482.47
2023-04-10T13:25:43.739Z,101484.94
2023-04-10T13:28:15.944Z,101473.94
2023-04-10T13:30:48.877Z,101477.19
2023-04-10T13:33:26.909Z,101485.44
2023-04-10T13:35:59.717Z,101478.94
2023-04-10T13:38:34.005Z,101467.69
2023-04-10T13:41:12.576Z,101467.25
2023-04-10T13:43:53.177Z,101466.84
2023-04-10T13:46:29.268Z,101463.16
2023-04-10T13:49:04.960Z,101463.50
2023-04-10T13:51:43.564Z,101461.50
2023-04-10T13:54:20.121Z,101459.44
2023-04-10T13:56:56.155Z,101449.75
2023-04-10T13:59:34.414Z,101452.19
2023-04-10T14:02:08.541Z,101446.91
2023-04-10T14:04:46.166Z,101439.25
2023-04-10T14:07:16.206Z,101436.06
2023-04-10T14:09:51.415Z,101434.41
2023-04-10T14:12:24.132Z,101440.50
2023-04-10T14:15:04.810Z,101437.22
2023-04-10T14:17:36.524Z,101432.03
2023-04-10T14:20:11.472Z,101428.78
2023-04-10T14:22:40.715Z,101423.13
2023-04-10T14:25:13.653Z,101423.97
2023-04-10T14:27:48.487Z,101419.13
2023-04-10T14:30:30.848Z,101422.34
2023-04-10T14:33:08.844Z,101413.81
2023-04-10T14:35:44.861Z,101413.09
2023-04-10T14:38:20.598Z,101401.06
2023-04-10T14:40:53.802Z,101406.34
2023-04-10T14:43:32.031Z,101397.81
2023-04-10T14:46:07.713Z,101392.03
2023-04-10T14:48:40.535Z,101394.94
2023-04-10T14:51:16.293Z,101399.88
2023-04-10T14:53:51.376Z,101394.59
2023-04-10T14:56:29.674Z,101390.16
2023-04-10T14:59:08.490Z,101390.19
2023-04-10T15:01:44.351Z,101381.16
2023-04-10T15:04:19.632Z,101383.31
2023-04-10T15:06:51.831Z,101382.91
2023-04-10T15:09:30.945Z,101377.63
2023-04-10T15:12:09.795Z,101373.59
2023-04-10T15:14:41.067Z,101379.25
2023-04-10T15:17:21.548Z,101379.97
2023-04-10T15:19:51.953Z,101367.13
2023-04-10T15:22:27.564Z,101367.84
2023-04-10T15:25:09.670Z,101377.91
2023-04-10T15:27:47.923Z,101374.38
2023-04-10T15:30:28.815Z,101374.75
2023-04-10T15:33:03.900Z,101373.91
2023-04-10T15:35:42.018Z,101377.09
2023-04-10T15:38:20.052Z,101377.84
2023-04-10T15:40:52.880Z,101380.69
2023-04-10T15:43:30.783Z,101379.88
2023-04-10T15:46:04.142Z,101372.25
2023-04-10T15:48:37.088Z,101373.50
2023-04-10T15:51:12.661Z,101360.13
2023-04-10T15:53:48.834Z,101369.09
2023-04-10T15:56:24.489Z,101370.31
2023-04-10T15:59:00.325Z,101363.41
2023-04-10T16:01:38.645Z,101362.19
2023-04-10T16:04:19.082Z,101358.94
2023-04-10T16:06:59.568Z,101366.66
2023-04-10T16:09:34.588Z,101358.94
2023-04-10T16:12:16.831Z,101359.81
2023-04-10T16:14:49.622Z,101357.41
2023-04-10T16:17:25.075Z,101357.34
2023-04-10T16:19:58.251Z,101340.81
2023-04-10T16:22:36.611Z,101348.88
2023-04-10T16:25:13.005Z,101350.13
2023-04-10T16:27:51.084Z,101354.97
2023-04-10T16:30:24.356Z,101342.44
2023-04-10T16:33:04.014Z,101356.59
2023-04-10T16:35:45.873Z,101340.81
2023-04-10T16:38:24.058Z,101348.09
2023-04-10T16:41:03.972Z,101338.44
2023-04-10T16:43:39.579Z,101347.28
2023-04-10T16:46:21.096Z,101339.22
2023-04-10T16:48:54.095Z,101353.72
2023-04-10T16:51:25.232Z,101354.53
2023-04-10T16:54:03.764Z,101345.66
2023-04-10T16:56:45.362Z,101359.00
2023-04-10T16:59:15.922Z,101355.78
2023-04-10T17:01:51.661Z,101359.31
2023-04-10T17:04:27.324Z,101354.06
2023-04-10T17:07:08.311Z,101359.28
2023-04-10T17:09:39.450Z,101352.84
2023-04-10T17:12:17.343Z,101352.81
2023-04-10T17:14:51.261Z,101358.47
2023-04-10T17:17:28.781Z,101349.53
2023-04-10T17:20:04.898Z,101350.34
2023-04-10T17:22:43.840Z,101342.31
2023-04-10T17:25:22.830Z,101341.88
2023-04-10T17:27:57.335Z,101333.38
2023-04-10T17:30:36.267Z,101341.09
2023-04-10T17:33:15.423Z,101324.16
2023-04-10T17:35:51.386Z,101323.72
2023-04-10T17:38:30.377Z,101331.00
2023-04-10T17:41:06.198Z,101327.41
2023-04-10T17:43:42.042Z,101342.31
2023-04-10T17:46:20.081Z,101316.03
2023-04-10T17:49:01.167Z,101327.25
2023-04-10T17:51:34.116Z,101324.34
2023-04-10T17:54:12.573Z,101328.84
2023-04-10T17:56:48.171Z,101325.59
2023-04-10T17:59:31.836Z,101329.22
2023-04-10T18:02:11.497Z,101330.81
2023-04-10T18:04:49.547Z,101330.38
2023-04-10T18:07:25.304Z,101335.22
2023-04-10T18:09:58.070Z,101331.56
2023-04-10T18:12:33.127Z,101331.56
2023-04-10T18:15:07.314Z,101342.41
2023-04-10T18:17:45.912Z,101340.78
2023-04-10T18:20:22.424Z,101344.78
2023-04-10T18:23:01.162Z,101350.41
2023-04-10T18:25:32.731Z,101348.38
2023-04-10T18:28:14.886Z,101350.06
2023-04-10T18:30:56.775Z,101352.13
2023-04-10T18:33:35.014Z,101348.09
2023-04-10T18:36:10.765Z,101358.22
2023-04-10T18:38:49.804Z,101349.34
2023-04-10T18:41:24.954Z,101349.78
2023-04-10T18:44:04.080Z,101346.13
2023-04-10T18:46:42.750Z,101358.34
2023-04-10T18:49:16.914Z,101352.59
2023-04-10T18:51:54.837Z,101356.31
2023-04-10T18:54:30.697Z,101362.38
2023-04-10T18:57:04.569Z,101363.09
2023-04-10T18:59:40.702Z,101361.03
2023-04-10T19:02:13.705Z,101355.34
2023-04-10T19:04:55.883Z,101363.84
2023-04-10T19:07:37.741Z,101366.63
2023-04-10T19:10:09.613Z,101379.16
2023-04-10T19:12:45.258Z,101377.53
2023-04-10T19:15:13.967Z,101385.50
2023-04-10T19:17:47.861Z,101384.78
2023-04-10T19:20:50.375Z,101385.59
2023-04-10T19:23:22.726Z,101381.56
2023-04-10T19:26:00.307Z,101378.34
2023-04-10T19:28:36.561Z,101375.41
2023-04-10T19:31:17.204Z,101372.63
2023-04-10T19:33:56.079Z,101383.03
2023-04-10T19:36:31.854Z,101379.47
2023-04-10T19:39:04.993Z,101374.16
2023-04-10T19:41:41.961Z,101370.53
2023-04-10T19:44:13.290Z,101364.38
2023-04-10T19:46:48.680Z,101365.84
2023-04-10T19:49:22.461Z,101371.94
2023-04-10T19:51:55.902Z,101370.34
2023-04-10T19:54:29.914Z,101364.63
2023-04-10T19:57:04.591Z,101367.41
2023-04-10T19:59:39.745Z,101370.59
2023-04-10T20:02:15.330Z,101371.44
2023-04-10T20:04:50.926Z,101364.09
2023-04-10T20:07:18.414Z,101353.16
2023-04-10T20:09:46.950Z,101353.50
2023-04-10T20:12:25.731Z,101345.03
2023-04-10T20:15:01.372Z,101348.75
2023-04-10T20:17:40.080Z,101344.72
2023-04-10T20:20:15.787Z,101335.38
2023-04-10T20:22:51.120Z,101342.28
2023-04-10T20:25:29.624Z,101338.22
2023-04-10T20:28:05.529Z,101331.31
2023-04-10T20:30:39.445Z,101330.50
2023-04-10T20:33:14.590Z,101336.56
2023-04-10T20:35:49.972Z,101334.50
2023-04-10T20:38:27.336Z,101322.78
2023-04-10T20:41:03.290Z,101328.03
2023-04-10T20:43:38.749Z,101330.16
2023-04-10T20:46:17.430Z,101325.66
2023-04-10T20:48:55.237Z,101324.41
2023-04-10T20:51:33.606Z,101332.13
2023-04-10T20:54:06.440Z,101329.25
2023-04-10T20:56:45.614Z,101334.88
2023-04-10T20:59:22.363Z,101333.69
2023-04-10T21:02:01.648Z,101345.38
2023-04-10T21:04:37.519Z,101349.47
2023-04-10T21:07:12.501Z,101340.59
2023-04-10T21:09:45.784Z,101340.94
2023-04-10T21:12:22.233Z,101342.91
2023-04-10T21:15:00.357Z,101352.97
2023-04-10T21:17:37.190Z,101343.31
2023-04-10T21:20:13.485Z,101346.03
2023-04-10T21:22:51.053Z,101347.19
2023-04-10T21:25:24.394Z,101354.56
2023-04-10T21:28:00.644Z,101351.66
2023-04-10T21:30:34.440Z,101366.25
2023-04-10T21:33:09.808Z,101357.75
2023-04-10T21:35:50.055Z,101362.22
2023-04-10T21:38:26.344Z,101360.09
2023-04-10T21:40:59.230Z,101355.63
2023-04-10T21:43:35.340Z,101353.19
2023-04-10T21:46:11.168Z,101349.91
2023-04-10T21:48:46.834Z,101341.56
2023-04-10T21:51:19.652Z,101325.75
2023-04-10T21:53:55.415Z,101343.50
2023-04-10T21:56:30.508Z,101329.78
2023-04-10T21:59:03.290Z,101329.69
2023-04-10T22:01:41.648Z,101318.34
2023-04-10T22:04:18.550Z,101316.41
2023-04-10T22:06:53.477Z,101320.75
2023-04-10T22:09:31.713Z,101314.34
2023-04-10T22:12:10.339Z,101317.72
2023-04-10T22:14:48.366Z,101318.91
2023-04-10T22:17:28.424Z,101322.44
2023-04-10T22:20:04.015Z,101324.75
2023-04-10T22:22:42.249Z,101326.00
2023-04-10T22:25:20.800Z,101315.53
2023-04-10T22:27:58.271Z,101327.97
2023-04-10T22:30:36.175Z,101337.25
2023-04-10T22:33:07.625Z,101338.88
2023-04-10T22:35:43.451Z,101342.88
2023-04-10T22:38:19.099Z,101342.09
2023-04-10T22:40:53.627Z,101341.69
2023-04-10T22:43:23.802Z,101340.81
2023-04-10T22:46:02.371Z,101330.28
2023-04-10T22:48:40.761Z,101327.50
2023-04-10T22:51:20.418Z,101325.91
2023-04-10T22:53:53.958Z,101328.72
2023-04-10T22:56:31.785Z,101337.13
2023-04-10T22:59:05.763Z,101336.31
2023-04-10T23:01:44.816Z,101351.31
2023-04-10T23:04:20.362Z,101337.13
2023-04-10T23:06:56.086Z,101324.63
2023-04-10T23:09:26.531Z,101321.75
2023-04-10T23:11:59.276Z,101324.06
2023-04-10T23:14:37.007Z,101324.56
2023-04-10T23:17:12.808Z,101327.72
2023-04-10T23:19:43.980Z,101330.09
2023-04-10T23:22:20.871Z,101334.19
2023-04-10T23:24:57.967Z,101330.97
2023-04-10T23:27:28.164Z,101335.88
2023-04-10T23:30:04.156Z,101339.94
2023-04-10T23:32:40.758Z,101331.84
2023-04-10T23:35:16.473Z,101320.50
2023-04-10T23:37:55.816Z,101305.56
2023-04-10T23:40:34.105Z,101283.06
2023-04-10T23:43:06.700Z,101285.06
2023-04-10T23:45:42.347Z,101276.94
2023-04-10T23:48:16.404Z,101273.28
2023-04-10T23:51:07.786Z,101252.72
2023-04-10T23:53:40.472Z,101260.38
2023-04-10T23:56:15.274Z,101253.16
2023-04-10T23:58:52.252Z,101255.47
